KPRB

Paso Robles Municipal Airport

Paso Robles, California, USA
METAR KPRB 162353Z AUTO 25008KT 10SM CLR 14/10 A3011 RMK AO2 SLP198 T01390100 10172 20089 53010 $
Observed Flight Rules
Dec-16 @ 23:53 UTC (30 minutes ago) Visual Flight Rules
Wind Visibility Clouds
250° at 8 knots 10 miles
  • Clear skies
Temperatures Readings
Current 14°C / 57°F
Dewpoint 10°C / 50°F
Humidity 77%
Altimeter 30.11" Hg
Pressure 1019.8 hPa
Elevation 245
METAR KPRB 162353Z AUTO 25008KT 10SM CLR 14/10 A3011 RMK AO2 SLP198 T01390100 10172 20089 53010 $
Observed Flight Rules
Dec-16 @ 23:53 UTC
(30 minutes ago)
VFR
Wind Visibility
250° at 8 knots 10 miles
Clouds
  • Clear skies
Temperature Dewpoint
14°C / 57°F 10°C / 50°F
Humidity Altimeter Pressure
77% 30.11" Hg 1019.8 hPa